createdAt,value
2018-07-12T00:01:00.313Z,88.56
2018-07-12T00:03:32.981Z,87.67
2018-07-12T00:06:05.507Z,86.92
2018-07-12T00:08:38.334Z,85.75
2018-07-12T00:11:10.810Z,85.15
2018-07-12T00:13:43.430Z,84.05
2018-07-12T00:16:15.997Z,84.03
2018-07-12T00:18:48.681Z,84.29
2018-07-12T00:21:21.271Z,84.42
2018-07-12T00:23:54.041Z,86.06
2018-07-12T00:26:26.504Z,86.88
2018-07-12T00:28:59.123Z,86.61
2018-07-12T00:31:31.668Z,86.96
2018-07-12T00:34:04.286Z,84.66
2018-07-12T00:36:36.844Z,85.76
2018-07-12T00:39:09.577Z,86.63
2018-07-12T00:41:42.242Z,87.04
2018-07-12T00:44:14.852Z,86.71
2018-07-12T00:46:47.561Z,85.93
2018-07-12T00:49:20.208Z,85.13
2018-07-12T00:51:52.767Z,84.79
2018-07-12T00:54:25.460Z,86.36
2018-07-12T00:56:58.112Z,86.67
2018-07-12T00:59:30.721Z,86.87
2018-07-12T01:02:03.655Z,87.14
2018-07-12T01:04:36.558Z,88.04
2018-07-12T01:07:09.105Z,89.12
2018-07-12T01:09:41.785Z,89.69
2018-07-12T01:12:14.339Z,88.49
2018-07-12T01:14:46.949Z,87.96
2018-07-12T01:17:19.544Z,88.27
2018-07-12T01:19:52.230Z,88.30
2018-07-12T01:22:24.846Z,87.92
2018-07-12T01:24:57.489Z,87.82
2018-07-12T01:27:30.133Z,88.49
2018-07-12T01:30:02.753Z,88.15
2018-07-12T01:32:35.312Z,87.68
2018-07-12T01:35:07.945Z,86.48
2018-07-12T01:37:40.635Z,85.61
2018-07-12T01:40:13.316Z,84.46
2018-07-12T01:42:46.012Z,85.16
2018-07-12T01:45:18.603Z,84.65
2018-07-12T01:47:51.146Z,84.27
2018-07-12T01:50:23.777Z,85.42
2018-07-12T01:52:56.449Z,86.61
2018-07-12T01:55:29.087Z,87.08
2018-07-12T01:58:01.636Z,88.05
2018-07-12T02:00:34.439Z,88.64
2018-07-12T02:03:07.000Z,89.68
2018-07-12T02:05:39.680Z,91.72
2018-07-12T02:08:12.200Z,92.76
2018-07-12T02:10:44.862Z,93.54
2018-07-12T02:13:17.395Z,93.59
2018-07-12T02:15:50.057Z,93.84
2018-07-12T02:18:22.576Z,93.90
2018-07-12T02:20:55.184Z,92.81
2018-07-12T02:23:27.764Z,93.38
2018-07-12T02:26:01.453Z,92.65
2018-07-12T02:28:33.972Z,92.24
2018-07-12T02:31:06.673Z,92.17
2018-07-12T02:33:39.321Z,92.58
2018-07-12T02:36:11.938Z,92.80
2018-07-12T02:38:44.442Z,92.41
2018-07-12T02:41:17.046Z,92.43
2018-07-12T02:43:49.733Z,92.92
2018-07-12T02:46:22.425Z,92.91
2018-07-12T02:48:55.017Z,91.40
2018-07-12T02:51:27.726Z,92.22
2018-07-12T02:54:01.654Z,92.40
2018-07-12T02:56:34.350Z,91.69
2018-07-12T02:59:06.851Z,91.45
2018-07-12T03:01:39.554Z,90.84
2018-07-12T03:04:12.212Z,90.13
2018-07-12T03:06:44.902Z,89.59
2018-07-12T03:09:17.395Z,89.30
2018-07-12T03:11:50.083Z,89.99
2018-07-12T03:14:22.743Z,89.88
2018-07-12T03:16:55.300Z,91.03
2018-07-12T03:19:27.899Z,91.34
2018-07-12T03:22:00.658Z,91.93
2018-07-12T03:24:33.318Z,92.46
2018-07-12T03:27:06.958Z,92.90
2018-07-12T03:29:39.544Z,93.26
2018-07-12T03:32:12.161Z,92.62
2018-07-12T03:34:44.610Z,91.84
2018-07-12T03:37:17.374Z,90.78
2018-07-12T03:39:49.905Z,89.60
2018-07-12T03:42:22.939Z,88.61
2018-07-12T03:44:55.541Z,87.53
2018-07-12T03:47:28.150Z,88.98
2018-07-12T03:50:00.634Z,87.69
2018-07-12T03:52:33.283Z,86.67
2018-07-12T03:55:05.986Z,89.64
2018-07-12T03:57:38.790Z,89.93
2018-07-12T04:00:11.235Z,89.11
2018-07-12T04:02:43.942Z,87.42
2018-07-12T04:05:16.549Z,87.92
2018-07-12T04:07:49.186Z,85.86
2018-07-12T04:10:21.735Z,86.74
2018-07-12T04:12:54.451Z,86.35
2018-07-12T04:15:27.002Z,86.77
2018-07-12T04:17:59.696Z,88.05
2018-07-12T04:20:37.512Z,87.79
2018-07-12T04:23:10.889Z,87.03
2018-07-12T04:25:43.561Z,87.87
2018-07-12T04:28:17.332Z,87.70
2018-07-12T04:30:49.893Z,87.40
2018-07-12T04:33:22.516Z,86.86
2018-07-12T04:35:55.134Z,85.69
2018-07-12T04:38:27.757Z,85.10
2018-07-12T04:41:00.277Z,84.97
2018-07-12T04:43:32.852Z,84.46
2018-07-12T04:46:05.476Z,84.31
2018-07-12T04:48:38.065Z,83.57
2018-07-12T04:51:10.651Z,82.32
2018-07-12T04:53:43.574Z,83.31
2018-07-12T04:56:16.094Z,82.50
2018-07-12T04:58:48.803Z,81.78
2018-07-12T05:01:21.364Z,81.23
2018-07-12T05:03:54.011Z,80.32
2018-07-12T05:06:26.605Z,79.38
2018-07-12T05:08:59.260Z,79.09
2018-07-12T05:11:25.773Z,78.22
2018-07-12T05:13:53.010Z,77.73
2018-07-12T05:16:20.085Z,77.20
2018-07-12T05:18:46.610Z,77.77
2018-07-12T05:21:13.138Z,75.83
2018-07-12T05:23:39.701Z,74.85
2018-07-12T05:26:06.221Z,73.76
2018-07-12T05:28:32.758Z,75.36
2018-07-12T05:30:59.321Z,74.14
2018-07-12T05:33:26.049Z,74.17
2018-07-12T05:35:53.812Z,73.71
2018-07-12T05:41:28.849Z,71.56
2018-07-12T05:43:56.750Z,70.13
2018-07-12T05:46:24.706Z,68.03
2018-07-12T05:48:52.632Z,67.75
2018-07-12T05:51:20.508Z,67.06
2018-07-12T05:53:48.380Z,66.02
2018-07-12T05:56:16.318Z,66.37
2018-07-12T05:58:44.202Z,64.49
2018-07-12T06:01:23.221Z,63.68
2018-07-12T06:03:51.126Z,64.73
2018-07-12T06:06:19.013Z,64.76
2018-07-12T06:08:46.913Z,64.15
2018-07-12T06:11:14.816Z,61.66
2018-07-12T06:13:42.709Z,62.36
2018-07-12T06:16:10.759Z,61.57
2018-07-12T06:18:38.526Z,61.22
2018-07-12T06:21:06.418Z,61.87
2018-07-12T06:23:35.307Z,62.36
2018-07-12T06:26:03.200Z,61.72
2018-07-12T06:28:31.099Z,61.52
2018-07-12T06:30:59.050Z,61.26
2018-07-12T06:33:26.933Z,62.43
2018-07-12T06:36:00.978Z,61.99
2018-07-12T06:38:28.862Z,60.20
2018-07-12T06:40:56.744Z,59.00
2018-07-12T06:43:24.875Z,57.82
2018-07-12T06:45:52.780Z,58.01
2018-07-12T06:48:20.744Z,57.54
2018-07-12T06:50:48.658Z,58.68
2018-07-12T06:53:16.563Z,58.89
2018-07-12T06:55:44.464Z,57.83
2018-07-12T06:58:12.411Z,56.83
2018-07-12T07:00:40.380Z,56.59
2018-07-12T07:03:08.513Z,55.07
2018-07-12T07:05:36.616Z,53.05
2018-07-12T07:08:04.484Z,52.96
2018-07-12T07:10:32.370Z,54.98
2018-07-12T07:13:00.302Z,53.49
2018-07-12T07:15:28.187Z,54.76
2018-07-12T07:17:56.066Z,52.25
2018-07-12T07:20:23.975Z,51.68
2018-07-12T07:22:51.882Z,52.46
2018-07-12T07:25:19.906Z,52.93
2018-07-12T07:27:48.177Z,51.76
2018-07-12T07:30:16.125Z,51.51
2018-07-12T07:32:44.005Z,50.86
2018-07-12T07:35:11.931Z,51.28
2018-07-12T07:37:39.910Z,50.36
2018-07-12T07:40:07.804Z,48.34
2018-07-12T07:42:35.726Z,47.25
2018-07-12T07:45:03.912Z,47.79
2018-07-12T07:47:31.819Z,45.90
2018-07-12T07:50:00.401Z,46.65
2018-07-12T07:52:28.346Z,46.75
2018-07-12T07:54:56.240Z,47.45
2018-07-12T07:57:24.242Z,46.58
2018-07-12T07:59:52.121Z,47.08
2018-07-12T08:02:20.001Z,47.79
2018-07-12T08:04:47.925Z,46.64
2018-07-12T08:07:15.786Z,44.38
2018-07-12T08:09:43.708Z,44.96
2018-07-12T08:12:11.842Z,46.01
2018-07-12T08:14:40.076Z,43.60
2018-07-12T08:17:07.986Z,43.34
2018-07-12T08:19:35.893Z,44.54
2018-07-12T08:22:06.345Z,44.53
2018-07-12T08:24:39.857Z,41.37
2018-07-12T08:27:10.827Z,41.00
2018-07-12T08:29:39.655Z,42.25
2018-07-12T08:32:07.659Z,43.03
2018-07-12T08:34:35.589Z,39.89
2018-07-12T08:37:03.573Z,41.54
2018-07-12T08:39:31.482Z,41.62
2018-07-12T08:41:59.368Z,39.92
2018-07-12T08:44:27.260Z,38.89
2018-07-12T08:46:55.283Z,37.69
2018-07-12T08:49:23.165Z,40.42
2018-07-12T08:51:51.200Z,40.17
2018-07-12T08:54:19.160Z,40.34
2018-07-12T08:56:47.180Z,40.45
2018-07-12T08:59:15.355Z,41.04
2018-07-12T09:01:43.260Z,38.30
2018-07-12T09:04:11.134Z,34.35
2018-07-12T09:06:39.005Z,37.79
2018-07-12T09:09:07.418Z,39.99
2018-07-12T09:11:35.320Z,39.31
2018-07-12T09:14:03.275Z,38.46
2018-07-12T09:16:31.235Z,37.88
2018-07-12T09:18:59.191Z,36.02
2018-07-12T09:21:27.073Z,33.07
2018-07-12T09:23:55.003Z,32.68
2018-07-12T09:26:28.954Z,34.27
2018-07-12T09:29:03.004Z,35.69
2018-07-12T09:31:36.960Z,36.10
2018-07-12T09:34:04.954Z,34.23
2018-07-12T09:36:32.977Z,34.96
2018-07-12T09:39:01.016Z,33.95
2018-07-12T09:41:28.954Z,35.52
2018-07-12T09:43:56.867Z,34.41
2018-07-12T09:46:24.755Z,36.15
2018-07-12T09:48:57.980Z,36.60
2018-07-12T09:51:33.622Z,30.53
2018-07-12T09:54:09.809Z,32.06
2018-07-12T09:56:53.195Z,31.57
2018-07-12T09:59:21.265Z,30.47
2018-07-12T10:03:58.152Z,31.73
2018-07-12T10:06:38.386Z,29.62
2018-07-12T10:09:12.437Z,28.75
2018-07-12T10:11:45.878Z,27.83
2018-07-12T10:14:19.390Z,29.38
2018-07-12T10:16:51.769Z,27.60
2018-07-12T10:19:19.656Z,26.51
2018-07-12T10:21:47.540Z,26.81
2018-07-12T10:24:15.739Z,26.12
2018-07-12T10:26:43.702Z,27.70
2018-07-12T10:29:11.649Z,28.65
2018-07-12T10:31:39.619Z,26.05
2018-07-12T10:34:07.528Z,25.79
2018-07-12T10:36:35.407Z,28.86
2018-07-12T10:39:03.839Z,28.16
2018-07-12T10:41:31.754Z,26.61
2018-07-12T10:43:59.749Z,26.24
2018-07-12T10:46:27.813Z,27.18
2018-07-12T10:48:55.864Z,28.76
2018-07-12T10:51:23.815Z,28.34
2018-07-12T10:53:51.949Z,26.80
2018-07-12T10:56:19.963Z,26.70
2018-07-12T10:58:47.901Z,26.75
2018-07-12T11:01:15.997Z,26.58
2018-07-12T11:03:43.977Z,25.98
2018-07-12T11:06:11.929Z,25.24
2018-07-12T11:08:39.956Z,24.22
2018-07-12T11:11:07.909Z,24.38
2018-07-12T11:13:47.370Z,24.12
2018-07-12T11:16:15.325Z,24.62
2018-07-12T11:18:43.901Z,25.19
2018-07-12T11:21:12.213Z,24.64
2018-07-12T11:23:40.465Z,24.83
2018-07-12T11:26:08.528Z,26.21
2018-07-12T11:28:36.453Z,26.24
2018-07-12T11:31:04.415Z,28.09
2018-07-12T11:33:36.436Z,26.58
2018-07-12T11:38:58.730Z,26.92
2018-07-12T11:41:28.487Z,25.49
2018-07-12T11:43:56.385Z,25.91
2018-07-12T11:46:24.356Z,26.23
2018-07-12T11:48:52.253Z,27.84
2018-07-12T11:51:20.140Z,28.15
2018-07-12T11:53:48.066Z,29.66
2018-07-12T11:56:15.945Z,28.66
2018-07-12T11:58:43.924Z,27.78
2018-07-12T12:01:11.896Z,29.11
2018-07-12T12:03:39.805Z,28.59
2018-07-12T12:06:07.701Z,29.06
2018-07-12T12:08:35.635Z,28.46
2018-07-12T12:11:03.541Z,28.91
2018-07-12T12:13:31.430Z,28.65
2018-07-12T12:15:59.340Z,30.54
2018-07-12T12:18:27.206Z,30.35
2018-07-12T12:20:55.093Z,30.45
2018-07-12T12:23:23.205Z,30.51
2018-07-12T12:25:51.091Z,29.16
2018-07-12T12:28:18.989Z,31.08
2018-07-12T12:30:46.925Z,29.95
2018-07-12T12:33:14.806Z,29.12
2018-07-12T12:35:42.705Z,30.46
2018-07-12T12:38:10.665Z,31.45
2018-07-12T12:40:38.546Z,31.17
2018-07-12T12:43:06.457Z,30.82
2018-07-12T12:45:34.795Z,29.75
2018-07-12T12:48:02.685Z,29.92
2018-07-12T12:50:30.556Z,28.55
2018-07-12T12:52:58.460Z,30.63
2018-07-12T12:55:26.384Z,30.55
2018-07-12T12:57:54.365Z,30.15
2018-07-12T13:00:22.477Z,29.37
2018-07-12T13:02:50.359Z,29.75
2018-07-12T13:05:18.247Z,29.66
2018-07-12T13:07:46.996Z,29.80
2018-07-12T13:10:14.937Z,29.17
2018-07-12T13:12:42.814Z,29.33
2018-07-12T13:15:10.749Z,28.45
2018-07-12T13:17:38.737Z,28.49
2018-07-12T13:20:06.722Z,28.41
2018-07-12T13:22:34.670Z,28.87
2018-07-12T13:25:02.709Z,27.89
2018-07-12T13:27:30.643Z,26.96
2018-07-12T13:29:58.644Z,26.32
2018-07-12T13:32:26.557Z,26.55
2018-07-12T13:34:54.454Z,26.98
2018-07-12T13:37:22.386Z,27.26
2018-07-12T13:39:50.288Z,26.33
2018-07-12T13:42:18.189Z,26.57
2018-07-12T13:44:46.098Z,27.94
2018-07-12T13:47:13.997Z,27.39
2018-07-12T13:49:41.895Z,26.94
2018-07-12T13:52:09.916Z,26.34
2018-07-12T13:54:38.336Z,27.17
2018-07-12T13:57:06.221Z,26.51
2018-07-12T13:59:34.190Z,27.41
2018-07-12T14:02:02.230Z,26.28
2018-07-12T14:04:30.133Z,26.33
2018-07-12T14:06:58.061Z,25.34
2018-07-12T14:09:25.938Z,26.34
2018-07-12T14:11:53.848Z,25.97
2018-07-12T14:14:21.812Z,25.23
2018-07-12T14:16:50.153Z,25.65
2018-07-12T14:19:18.055Z,24.78
2018-07-12T14:21:45.995Z,24.87
2018-07-12T14:24:13.913Z,25.36
2018-07-12T14:26:41.813Z,24.11
2018-07-12T14:29:09.756Z,24.69
2018-07-12T14:31:37.650Z,24.50
2018-07-12T14:34:05.656Z,23.82
2018-07-12T14:36:33.993Z,23.85
2018-07-12T14:39:01.936Z,24.06
2018-07-12T14:41:29.979Z,23.72
2018-07-12T14:43:57.952Z,24.03
2018-07-12T14:46:31.905Z,23.32
2018-07-12T14:48:59.884Z,23.58
2018-07-12T14:51:27.807Z,23.57
2018-07-12T14:53:55.700Z,23.45
2018-07-12T14:56:23.669Z,22.79
2018-07-12T14:58:51.582Z,24.31
2018-07-12T15:01:24.672Z,23.07
2018-07-12T15:03:53.245Z,23.11
2018-07-12T15:06:21.241Z,22.69
2018-07-12T15:08:49.234Z,22.45
2018-07-12T15:11:17.125Z,24.39
2018-07-12T15:13:45.066Z,25.45
2018-07-12T15:16:13.063Z,26.91
2018-07-12T15:18:40.945Z,26.99
2018-07-12T15:21:08.857Z,25.63
2018-07-12T15:23:36.824Z,25.37
2018-07-12T15:26:04.776Z,24.92
2018-07-12T15:28:33.000Z,24.21
2018-07-12T15:31:00.916Z,24.93
2018-07-12T15:33:28.833Z,24.93
2018-07-12T15:35:56.840Z,24.18
2018-07-12T15:38:24.932Z,24.65
2018-07-12T15:40:52.829Z,25.24
2018-07-12T15:43:20.747Z,27.84
2018-07-12T15:45:48.994Z,30.00
2018-07-12T15:48:16.885Z,31.73
2018-07-12T15:50:45.743Z,32.65
2018-07-12T15:53:13.669Z,33.31
2018-07-12T15:55:41.558Z,34.07
2018-07-12T15:58:09.595Z,33.87
2018-07-12T16:00:37.993Z,34.44
2018-07-12T16:03:05.890Z,34.65
2018-07-12T16:05:33.881Z,35.08
2018-07-12T16:08:01.829Z,35.17
2018-07-12T16:10:29.716Z,36.46
2018-07-12T16:12:57.628Z,36.01
2018-07-12T16:15:25.642Z,36.80
2018-07-12T16:17:53.571Z,37.35
2018-07-12T16:20:21.449Z,37.85
2018-07-12T16:22:49.579Z,37.61
2018-07-12T16:25:17.478Z,38.19
2018-07-12T16:27:45.385Z,38.31
2018-07-12T16:30:13.331Z,38.76
2018-07-12T16:32:41.204Z,39.72
2018-07-12T16:35:10.082Z,41.22
2018-07-12T16:37:38.012Z,41.49
2018-07-12T16:40:05.922Z,41.83
2018-07-12T16:42:33.804Z,41.36
2018-07-12T16:45:01.805Z,41.18
2018-07-12T16:47:30.224Z,41.81
2018-07-12T16:50:01.125Z,41.04
2018-07-12T16:52:29.048Z,41.54
2018-07-12T16:54:56.938Z,41.96
2018-07-12T16:57:24.897Z,41.08
2018-07-12T16:59:52.839Z,40.57
2018-07-12T17:02:20.729Z,41.02
2018-07-12T17:04:48.653Z,40.15
2018-07-12T17:07:16.775Z,41.73
2018-07-12T17:09:44.657Z,41.30
2018-07-12T17:12:12.575Z,41.90
2018-07-12T17:14:40.643Z,42.02
2018-07-12T17:17:08.519Z,41.97
2018-07-12T17:19:36.476Z,43.94
2018-07-12T17:22:04.386Z,43.58
2018-07-12T17:24:32.260Z,43.94
2018-07-12T17:27:00.138Z,42.53
2018-07-12T17:29:28.245Z,43.83
2018-07-12T17:31:56.127Z,44.52
2018-07-12T17:34:24.022Z,44.26
2018-07-12T17:36:52.371Z,45.58
2018-07-12T17:39:20.283Z,44.35
2018-07-12T17:41:48.557Z,45.03
2018-07-12T17:44:16.667Z,45.45
2018-07-12T17:46:44.536Z,45.04
2018-07-12T17:49:13.676Z,45.59
2018-07-12T17:51:42.086Z,47.21
2018-07-12T17:54:09.970Z,47.06
2018-07-12T17:56:37.838Z,47.85
2018-07-12T17:59:05.891Z,49.08
2018-07-12T18:01:33.928Z,50.33
2018-07-12T18:04:02.110Z,51.69
2018-07-12T18:06:30.574Z,52.54
2018-07-12T18:08:58.568Z,54.20
2018-07-12T18:11:26.654Z,54.52
2018-07-12T18:13:55.193Z,55.22
2018-07-12T18:16:23.074Z,53.81
2018-07-12T18:18:50.942Z,55.42
2018-07-12T18:21:19.728Z,57.42
2018-07-12T18:23:47.616Z,60.14
2018-07-12T18:26:15.807Z,59.94
2018-07-12T18:28:43.730Z,59.80
2018-07-12T18:31:11.605Z,58.26
2018-07-12T18:33:39.480Z,56.57
2018-07-12T18:36:07.465Z,57.53
2018-07-12T18:38:35.342Z,57.45
2018-07-12T18:41:03.323Z,57.84
2018-07-12T18:43:31.282Z,58.02
2018-07-12T18:45:59.353Z,58.08
2018-07-12T18:48:27.256Z,58.97
2018-07-12T18:50:55.433Z,59.10
2018-07-12T18:53:23.322Z,59.77
2018-07-12T18:55:51.272Z,60.10
2018-07-12T18:58:19.243Z,57.87
2018-07-12T19:00:47.181Z,57.17
2018-07-12T19:03:15.505Z,56.96
2018-07-12T19:05:43.449Z,58.29
2018-07-12T19:08:11.332Z,59.62
2018-07-12T19:10:39.293Z,60.77
2018-07-12T19:13:07.207Z,62.87
2018-07-12T19:15:35.098Z,63.59
2018-07-12T19:18:02.964Z,65.48
2018-07-12T19:20:30.931Z,66.72
2018-07-12T19:22:58.920Z,68.36
2018-07-12T19:25:27.518Z,69.43
2018-07-12T19:27:55.499Z,69.35
2018-07-12T19:30:24.020Z,69.15
2018-07-12T19:32:51.927Z,68.06
2018-07-12T19:35:19.961Z,66.72
2018-07-12T19:37:47.854Z,63.74
2018-07-12T19:40:15.776Z,64.65
2018-07-12T19:42:43.962Z,63.60
2018-07-12T19:45:11.934Z,64.70
2018-07-12T19:47:39.820Z,65.43
2018-07-12T19:50:07.779Z,64.41
2018-07-12T19:52:35.648Z,65.54
2018-07-12T19:55:03.999Z,65.48
2018-07-12T19:57:33.033Z,66.88
2018-07-12T20:00:07.502Z,68.00
2018-07-12T20:02:41.622Z,68.79
2018-07-12T20:05:15.522Z,68.58
2018-07-12T20:07:49.464Z,67.97
2018-07-12T20:10:23.600Z,68.58
2018-07-12T20:12:59.309Z,68.17
2018-07-12T20:15:33.508Z,68.89
2018-07-12T20:18:07.493Z,69.05
2018-07-12T20:20:41.524Z,69.96
2018-07-12T20:23:15.802Z,70.10
2018-07-12T20:25:49.702Z,71.00
2018-07-12T20:28:23.953Z,69.60
2018-07-12T20:30:58.862Z,70.45
2018-07-12T20:33:33.084Z,69.91
2018-07-12T20:36:09.195Z,71.53
2018-07-12T20:38:44.102Z,71.94
2018-07-12T20:41:18.651Z,72.14
2018-07-12T20:43:53.483Z,71.72
2018-07-12T20:46:28.090Z,70.88
2018-07-12T20:49:04.519Z,70.03
2018-07-12T20:51:39.214Z,70.62
2018-07-12T20:54:14.172Z,71.73
2018-07-12T20:56:48.944Z,72.98
2018-07-12T20:59:24.414Z,74.59
2018-07-12T21:01:59.117Z,75.08
2018-07-12T21:04:33.570Z,74.03
2018-07-12T21:07:07.459Z,75.67
2018-07-12T21:09:41.402Z,76.07
2018-07-12T21:12:15.399Z,75.62
2018-07-12T21:14:50.291Z,75.31
2018-07-12T21:17:24.441Z,74.81
2018-07-12T21:19:58.981Z,75.23
2018-07-12T21:22:33.065Z,75.52
2018-07-12T21:25:07.039Z,74.69
2018-07-12T21:27:40.946Z,74.05
2018-07-12T21:30:14.931Z,75.55
2018-07-12T21:32:48.877Z,75.81
2018-07-12T21:35:23.086Z,75.48
2018-07-12T21:37:57.026Z,77.16
2018-07-12T21:40:30.976Z,77.17
2018-07-12T21:43:05.086Z,76.94
2018-07-12T21:45:39.118Z,76.50
2018-07-12T21:48:13.145Z,78.05
2018-07-12T21:50:47.239Z,78.85
2018-07-12T21:53:21.137Z,80.41
2018-07-12T21:55:55.194Z,81.49
2018-07-12T21:58:29.166Z,83.48
2018-07-12T22:01:03.187Z,84.26
2018-07-12T22:03:37.280Z,84.04
2018-07-12T22:06:11.882Z,82.53
2018-07-12T22:08:46.037Z,82.75
2018-07-12T22:11:19.905Z,84.96
2018-07-12T22:13:53.984Z,84.65
2018-07-12T22:16:28.757Z,84.45
2018-07-12T22:19:02.653Z,82.64
2018-07-12T22:21:36.683Z,81.39
2018-07-12T22:24:10.488Z,80.19
2018-07-12T22:26:44.401Z,79.23
2018-07-12T22:29:18.377Z,78.73
2018-07-12T22:31:52.364Z,79.58
2018-07-12T22:34:26.274Z,79.59
2018-07-12T22:37:00.407Z,79.48
2018-07-12T22:39:34.306Z,79.43
2018-07-12T22:42:08.368Z,79.87
2018-07-12T22:44:42.283Z,79.67
2018-07-12T22:47:16.288Z,83.56
2018-07-12T22:49:50.175Z,85.31
2018-07-12T22:52:24.158Z,85.45
2018-07-12T22:54:58.071Z,86.08
2018-07-12T22:57:32.046Z,86.86
2018-07-12T23:00:06.580Z,86.62
2018-07-12T23:02:40.474Z,86.04
2018-07-12T23:05:14.453Z,86.02
2018-07-12T23:07:48.642Z,85.93
2018-07-12T23:10:22.665Z,84.92
2018-07-12T23:12:56.661Z,85.49
2018-07-12T23:15:30.635Z,85.54
2018-07-12T23:18:04.852Z,85.18
2018-07-12T23:20:38.916Z,84.44
2018-07-12T23:23:13.442Z,83.25
2018-07-12T23:25:47.356Z,82.08
2018-07-12T23:28:21.286Z,81.40
2018-07-12T23:30:55.385Z,83.17
2018-07-12T23:33:29.535Z,83.63
2018-07-12T23:36:03.358Z,82.46
2018-07-12T23:38:37.519Z,83.72
2018-07-12T23:41:11.452Z,85.27
2018-07-12T23:43:45.439Z,86.62
2018-07-12T23:46:19.312Z,86.75
2018-07-12T23:48:53.233Z,85.56
2018-07-12T23:51:27.295Z,84.56
2018-07-12T23:54:01.937Z,84.68
2018-07-12T23:56:35.988Z,83.57
2018-07-12T23:59:10.087Z,83.86
